Time;durP1;ratioP1;P1;durP2;ratioP2;P2;SDS_P1;SDS_P2;PMS_P1;PMS_P2;Temp;Humidity;BMP_temperature;BMP_pressure;BME280_temperature;BME280_humidity;BME280_pressure;Samples;Min_cycle;Max_cycle;Signal;HPM_P1;HPM_P2
2022/07/13 00:01:30;;;;;;;3.17;2.50;;;17.00;46.90;;;16.87;62.77;101538.34;5030759;28;20483;-69
2022/07/13 00:03:59;;;;;;;6.40;2.70;;;16.90;49.10;;;16.82;62.87;101534.63;5035324;28;20395;-70
2022/07/13 00:06:29;;;;;;;5.73;1.73;;;16.80;50.30;;;16.84;62.72;101530.63;5039044;28;20407;-70
2022/07/13 00:08:58;;;;;;;3.27;2.00;;;16.80;51.90;;;16.85;62.65;101529.53;5038741;28;20788;-71
2022/07/13 00:11:27;;;;;;;3.20;2.27;;;16.80;52.80;;;16.96;62.52;101530.66;5039467;28;20471;-71
2022/07/13 00:13:55;;;;;;;4.93;2.60;;;16.90;53.20;;;17.14;61.69;101529.81;5039115;28;20506;-72
2022/07/13 00:16:24;;;;;;;2.70;1.90;;;17.00;50.70;;;17.14;61.65;101525.16;5033374;28;20410;-71
2022/07/13 00:18:55;;;;;;;4.00;2.33;;;17.10;50.10;;;17.17;61.54;101526.63;5033524;28;20417;-71
2022/07/13 00:21:24;;;;;;;3.37;2.33;;;17.10;49.20;;;17.38;61.10;101537.06;5031727;28;20448;-72
2022/07/13 00:24:00;;;;;;;2.90;2.33;;;17.30;48.20;;;17.51;60.65;101527.84;5024653;28;20413;-69
2022/07/13 00:26:29;;;;;;;3.17;2.00;;;17.40;46.80;;;17.46;60.73;101531.28;5030130;28;20435;-70
2022/07/13 00:28:58;;;;;;;2.90;2.03;;;17.40;46.10;;;17.34;61.13;101525.75;5032088;28;20443;-70
2022/07/13 00:31:27;;;;;;;3.17;2.40;;;17.40;46.80;;;17.37;60.91;101522.56;5033169;28;20426;-72
2022/07/13 00:33:57;;;;;;;6.67;2.50;;;17.30;47.00;;;17.34;61.04;101516.69;5033843;28;20770;-70
2022/07/13 00:36:26;;;;;;;1.97;1.63;;;17.30;46.80;;;17.39;60.79;101511.38;5034077;28;20428;-71
2022/07/13 00:38:55;;;;;;;3.90;2.17;;;17.30;46.50;;;17.45;60.75;101515.06;5034013;28;20411;-69
2022/07/13 00:41:24;;;;;;;4.97;2.33;;;17.40;46.40;;;17.50;60.43;101517.94;5032468;28;20943;-70
2022/07/13 00:43:53;;;;;;;1.83;1.40;;;17.40;45.70;;;17.48;60.40;101511.88;5032218;28;20815;-70
2022/07/13 00:46:22;;;;;;;3.00;2.20;;;17.40;45.50;;;17.51;60.44;101505.94;5033471;28;20434;-70
2022/07/13 00:48:52;;;;;;;4.40;2.23;;;17.40;45.40;;;17.52;60.26;101507.63;5050431;28;20505;-69
2022/07/13 00:51:22;;;;;;;3.10;1.80;;;17.40;44.90;;;17.67;59.83;101503.38;5033586;28;21042;-71
2022/07/13 00:53:51;;;;;;;2.03;1.80;;;17.50;44.20;;;17.67;59.86;101502.59;5033330;28;20438;-70
2022/07/13 00:56:22;;;;;;;3.63;2.30;;;17.60;43.50;;;17.68;59.87;101498.75;5032106;28;21069;-71
2022/07/13 00:58:51;;;;;;;2.63;1.90;;;17.60;42.80;;;17.65;59.80;101486.38;5033436;28;20403;-70
2022/07/13 01:01:21;;;;;;;5.27;2.67;;;17.60;1.00;;;17.68;59.88;101487.81;5033182;28;20850;-70
2022/07/13 01:03:51;;;;;;;2.40;2.10;;;17.60;1.00;;;17.72;59.65;101484.38;5038619;28;20886;-69
2022/07/13 01:06:22;;;;;;;3.20;1.73;;;17.60;1.00;;;17.71;59.76;101479.97;5032957;28;20443;-69
2022/07/13 01:08:51;;;;;;;2.80;1.93;;;17.60;1.00;;;17.76;59.47;101484.75;5033417;28;20848;-70
2022/07/13 01:11:21;;;;;;;2.53;2.20;;;17.60;1.00;;;17.86;58.96;101489.66;5072065;22;20477;-68
2022/07/13 01:13:51;;;;;;;2.33;1.93;;;17.70;1.00;;;17.91;58.94;101481.56;5073104;28;20527;-69
2022/07/13 01:16:20;;;;;;;2.50;1.37;;;17.80;1.00;;;17.90;59.05;101488.94;5073973;28;20426;-69
2022/07/13 01:18:51;;;;;;;2.60;2.07;;;17.80;1.00;;;17.93;58.98;101482.13;5073892;28;20441;-70
2022/07/13 01:21:22;;;;;;;5.37;2.83;;;17.80;1.00;;;17.94;58.98;101481.91;5073704;28;20425;-69
2022/07/13 01:23:54;;;;;;;2.60;2.17;;;17.80;1.00;;;17.98;59.02;101483.09;5072402;28;20424;-69
2022/07/13 01:26:23;;;;;;;5.07;2.13;;;17.90;1.00;;;18.09;58.76;101473.22;5072724;28;20507;-68
2022/07/13 01:28:52;;;;;;;2.23;1.80;;;18.00;1.00;;;18.03;59.14;101479.66;5073446;28;20446;-70
2022/07/13 01:31:35;;;;;;;2.57;1.80;;;17.90;1.00;;;17.99;59.18;101473.00;5073302;28;20428;-70
2022/07/13 01:34:06;;;;;;;2.80;2.17;;;17.90;1.00;;;17.97;59.50;101475.13;5073179;28;20482;-69
2022/07/13 01:36:37;;;;;;;2.10;1.67;;;17.90;1.00;;;17.94;59.57;101470.13;5073292;28;20409;-69
2022/07/13 01:39:08;;;;;;;1.80;1.40;;;17.80;1.00;;;18.10;59.19;101474.91;5065333;28;20445;-69
2022/07/13 01:41:38;;;;;;;2.60;1.80;;;18.00;1.00;;;18.09;59.18;101478.72;5065385;28;20444;-69
2022/07/13 01:44:07;;;;;;;2.83;2.30;;;18.00;1.00;;;18.04;59.49;101479.44;5067539;28;20784;-71
2022/07/13 01:46:37;;;;;;;4.20;3.53;;;18.00;1.00;;;18.12;59.46;101483.69;5073445;28;20409;-69
2022/07/13 01:49:06;;;;;;;3.80;2.47;;;18.00;1.00;;;18.10;59.28;101481.22;5073627;28;20800;-70
2022/07/13 01:51:35;;;;;;;3.03;2.47;;;18.00;1.00;;;18.12;59.39;101489.19;5071776;28;20544;-70
2022/07/13 01:54:04;;;;;;;2.43;1.87;;;18.00;1.00;;;18.03;59.61;101476.91;5071777;28;20818;-69
2022/07/13 01:56:35;;;;;;;3.47;1.53;;;18.00;1.00;;;18.05;59.57;101477.53;5073971;28;20405;-68
2022/07/13 01:59:04;;;;;;;2.60;2.10;;;17.90;1.00;;;18.04;59.66;101473.94;5078781;28;20421;-69
2022/07/13 02:01:33;;;;;;;2.67;2.17;;;17.90;1.00;;;18.01;59.94;101466.19;5071759;28;20520;-69
2022/07/13 02:04:02;;;;;;;4.03;2.53;;;17.90;1.00;;;18.00;60.25;101459.06;5071918;28;20423;-69
2022/07/13 02:06:32;;;;;;;3.80;2.20;;;17.80;1.00;;;18.01;59.93;101448.94;5071854;28;20533;-69
2022/07/13 02:09:01;;;;;;;4.60;2.20;;;17.90;1.00;;;17.93;60.35;101452.03;5072033;28;20541;-69
2022/07/13 02:11:31;;;;;;;2.97;2.23;;;17.90;1.00;;;17.85;60.64;101455.94;5071419;28;20536;-70
2022/07/13 02:14:01;;;;;;;2.00;1.70;;;17.80;1.00;;;17.82;60.80;101442.72;5072681;28;20432;-70
2022/07/13 02:16:31;;;;;;;2.57;1.83;;;17.70;1.00;;;17.84;61.08;101446.06;5089482;28;20450;-69
2022/07/13 02:19:00;;;;;;;3.10;2.13;;;17.70;1.00;;;17.93;60.66;101452.84;5071067;28;21039;-69
2022/07/13 02:21:32;;;;;;;2.20;1.93;;;17.80;1.00;;;17.89;60.92;101448.94;5070664;28;20536;-69
2022/07/13 02:24:02;;;;;;;3.50;2.03;;;17.80;1.00;;;17.92;60.99;101453.09;5070538;28;20417;-69
2022/07/13 02:26:31;;;;;;;3.70;1.80;;;17.90;1.00;;;17.85;61.17;101457.84;5072325;28;20432;-69
2022/07/13 02:29:02;;;;;;;3.03;2.17;;;17.80;1.00;;;17.80;61.30;101464.88;5070848;28;20452;-69
2022/07/13 02:31:34;;;;;;;4.03;2.30;;;17.70;1.00;;;17.86;61.20;101456.78;5070893;28;20557;-69
2022/07/13 02:34:04;;;;;;;4.30;2.10;;;17.70;1.00;;;17.91;61.02;101454.19;5070850;28;20412;-69
2022/07/13 02:36:33;;;;;;;2.60;2.10;;;17.70;1.00;;;18.10;60.63;101458.47;5072410;28;20902;-69
2022/07/13 02:39:02;;;;;;;2.63;2.17;;;17.90;1.00;;;18.13;60.45;101460.72;5072656;28;20435;-69
2022/07/13 02:41:31;;;;;;;6.03;2.33;;;17.90;1.00;;;18.00;61.04;101460.97;5072250;28;20782;-69
2022/07/13 02:44:02;;;;;;;2.07;1.70;;;17.90;1.00;;;17.92;61.44;101461.31;5072608;28;20416;-69
2022/07/13 02:46:31;;;;;;;2.33;1.97;;;17.80;1.00;;;17.81;61.86;101454.75;5071895;28;20409;-70
2022/07/13 02:49:00;;;;;;;3.40;1.80;;;17.70;1.00;;;17.73;62.07;101447.72;5073108;28;20407;-69
2022/07/13 02:51:30;;;;;;;4.00;1.90;;;17.70;1.00;;;17.77;62.33;101453.53;5071798;28;20516;-69
2022/07/13 02:53:59;;;;;;;4.37;2.03;;;17.70;1.00;;;17.73;62.47;101453.19;5071921;28;20405;-69
2022/07/13 02:56:28;;;;;;;2.13;1.80;;;17.60;1.00;;;17.80;62.31;101448.47;5096909;28;20409;-69
2022/07/13 02:58:58;;;;;;;3.70;2.43;;;17.60;1.00;;;18.04;61.57;101456.69;5084670;28;20413;-70
2022/07/13 03:01:29;;;;;;;2.40;2.20;;;17.80;1.00;;;17.85;62.26;101446.91;5079129;28;20528;-69
2022/07/13 03:03:58;;;;;;;2.50;2.30;;;17.70;1.00;;;17.80;62.54;101442.97;5084199;28;20412;-70
2022/07/13 03:06:27;;;;;;;2.47;1.90;;;17.70;1.00;;;17.83;62.55;101440.81;5092536;28;20574;-69
2022/07/13 03:08:56;;;;;;;3.03;2.13;;;17.70;1.00;;;17.97;62.31;101447.72;5080430;28;20442;-69
2022/07/13 03:11:25;;;;;;;3.30;2.00;;;17.80;1.00;;;17.87;62.19;101442.00;5081426;28;20456;-69
2022/07/13 03:13:54;;;;;;;2.80;2.43;;;17.70;1.00;;;17.79;62.55;101430.34;5080237;28;20434;-69
2022/07/13 03:16:23;;;;;;;1.73;1.50;;;17.70;1.00;;;17.82;63.00;101437.25;5082457;28;20496;-69
2022/07/13 03:18:54;;;;;;;2.47;1.90;;;17.70;1.00;;;17.98;62.34;101443.94;5082224;28;20814;-69
2022/07/13 03:21:27;;;;;;;2.73;2.30;;;17.80;1.00;;;17.88;62.75;101440.94;5079866;28;20466;-69
2022/07/13 03:23:58;;;;;;;3.50;2.10;;;17.80;1.00;;;17.83;62.87;101430.72;5079773;28;20447;-69
2022/07/13 03:26:27;;;;;;;2.80;2.07;;;17.70;1.00;;;17.89;63.01;101428.94;5079150;28;20434;-69
2022/07/13 03:28:57;;;;;;;2.90;2.43;;;17.70;1.00;;;17.83;63.07;101424.41;5075982;28;20413;-70
2022/07/13 03:31:26;;;;;;;2.53;2.03;;;17.70;1.00;;;17.83;63.13;101422.50;5070676;28;20456;-70
2022/07/13 03:33:58;;;;;;;4.20;2.70;;;17.70;1.00;;;18.09;62.65;101426.66;5064269;28;20408;-70
2022/07/13 03:36:28;;;;;;;4.47;2.40;;;17.80;1.00;;;18.13;62.42;101430.59;5068681;28;20478;-69
2022/07/13 03:38:57;;;;;;;2.23;1.87;;;17.90;1.00;;;18.06;62.83;101427.13;5070288;28;20438;-69
2022/07/13 03:41:27;;;;;;;2.30;2.10;;;17.90;1.00;;;17.98;63.18;101422.84;5070271;28;20999;-69
2022/07/13 03:43:58;;;;;;;2.83;2.10;;;17.90;1.00;;;17.95;63.45;101422.50;5070783;28;20519;-69
2022/07/13 03:46:28;;;;;;;6.17;2.87;;;17.90;1.00;;;18.04;63.32;101423.81;5070632;28;20409;-69
2022/07/13 03:48:58;;;;;;;3.40;2.20;;;17.90;99.90;;;18.04;63.35;101416.44;5070713;28;20405;-69
2022/07/13 03:51:29;;;;;;;3.90;2.20;;;17.90;99.90;;;18.04;63.30;101419.16;5079079;28;20494;-70
2022/07/13 03:53:58;;;;;;;2.77;2.23;;;17.90;99.90;;;18.04;63.50;101410.13;5091656;28;20437;-70
2022/07/13 03:56:28;;;;;;;8.50;2.50;;;17.90;99.90;;;18.22;63.02;101420.94;5081956;28;20488;-69
2022/07/13 03:58:57;;;;;;;3.33;2.57;;;18.00;1.00;;;18.37;62.76;101418.53;5071264;28;20430;-72
2022/07/13 04:01:27;;;;;;;2.87;2.10;;;18.10;99.90;;;18.37;62.73;101421.28;5086996;28;20429;-69
2022/07/13 04:03:58;;;;;;;3.87;2.57;;;18.20;1.00;;;18.43;62.83;101419.50;5071854;28;20413;-70
2022/07/13 04:06:29;;;;;;;2.67;2.40;;;18.30;1.00;;;18.68;61.80;101420.06;5073841;28;21022;-70
2022/07/13 04:08:58;;;;;;;2.80;1.90;;;18.40;1.00;;;18.59;62.50;101414.09;5077489;28;20413;-69
2022/07/13 04:11:27;;;;;;;2.77;1.90;;;18.40;1.00;;;18.52;62.71;101407.91;5075468;28;21025;-69
2022/07/13 04:13:57;;;;;;;2.70;2.23;;;18.40;1.00;;;18.50;62.99;101410.03;5074216;28;20831;-70
2022/07/13 04:16:26;;;;;;;2.40;2.20;;;18.30;1.00;;;18.58;62.57;101412.47;5090078;28;20440;-69
2022/07/13 04:18:57;;;;;;;5.43;2.40;;;18.40;1.00;;;18.55;62.84;101406.59;5080439;28;20425;-69
2022/07/13 04:21:26;;;;;;;4.93;2.40;;;18.40;14.00;;;18.76;62.20;101408.69;5073282;28;20464;-69
2022/07/13 04:23:55;;;;;;;3.10;1.97;;;18.50;99.90;;;18.93;61.84;101403.25;5074382;28;20860;-69
2022/07/13 04:26:24;;;;;;;4.00;2.73;;;18.70;1.00;;;18.86;62.23;101402.56;5073292;28;20534;-69
2022/07/13 04:28:53;;;;;;;2.20;1.93;;;18.60;1.00;;;18.85;62.19;101409.13;5073424;28;20405;-68
2022/07/13 04:31:25;;;;;;;2.60;2.20;;;18.60;1.00;;;18.93;62.13;101408.72;5076065;28;21008;-69
2022/07/13 04:33:54;;;;;;;2.23;1.90;;;18.70;1.00;;;19.04;61.62;101405.13;5073873;28;20832;-69
2022/07/13 04:36:26;;;;;;;2.27;2.07;;;18.80;1.00;;;19.02;61.87;101408.13;5073286;28;20811;-69
2022/07/13 04:38:55;;;;;;;2.83;2.00;;;18.80;1.00;;;19.13;61.43;101411.03;5073192;28;20446;-69
2022/07/13 04:41:25;;;;;;;2.37;1.90;;;18.80;1.00;;;19.20;61.13;101420.78;5072846;28;20436;-69
2022/07/13 04:43:54;;;;;;;2.33;2.10;;;18.90;1.00;;;19.23;61.51;101419.44;5072961;28;20468;-69
2022/07/13 04:46:25;;;;;;;2.40;1.70;;;18.90;1.00;;;19.22;61.65;101421.34;5073903;28;20435;-69
2022/07/13 04:48:56;;;;;;;3.10;1.97;;;18.90;1.00;;;19.27;61.46;101415.97;5072836;28;20449;-69
2022/07/13 04:51:27;;;;;;;2.30;2.10;;;18.90;1.00;;;19.29;61.28;101408.34;5075687;28;20443;-69
2022/07/13 04:53:57;;;;;;;3.17;2.50;;;18.90;1.00;;;19.35;61.39;101403.78;5077452;28;20465;-70
2022/07/13 04:56:27;;;;;;;2.43;1.80;;;19.00;1.00;;;19.47;61.06;101402.63;5080817;28;20451;-69
2022/07/13 04:58:56;;;;;;;3.10;2.27;;;19.10;1.00;;;19.61;60.99;101403.13;5082738;28;20434;-69
2022/07/13 05:01:25;;;;;;;3.70;2.13;;;19.20;1.00;;;19.83;60.40;101403.22;5075559;28;20472;-69
2022/07/13 05:04:01;;;;;;;2.67;1.97;;;19.50;1.00;;;19.90;59.97;101406.59;5085188;28;20443;-69
2022/07/13 05:06:34;;;;;;;3.27;2.60;;;19.50;1.00;;;19.92;59.72;101404.47;5082243;28;20447;-69
2022/07/13 05:09:05;;;;;;;2.70;1.90;;;19.50;1.00;;;20.09;59.80;101410.75;5084547;28;20497;-70
2022/07/13 05:11:34;;;;;;;3.27;2.70;;;19.60;1.00;;;20.25;59.31;101409.06;5082024;28;20880;-70
2022/07/13 05:14:03;;;;;;;3.30;2.10;;;19.80;1.00;;;20.43;58.89;101413.47;5072345;28;20450;-69
2022/07/13 05:16:32;;;;;;;3.53;2.27;;;20.00;1.00;;;20.54;57.97;101412.50;5080517;28;20462;-69
2022/07/13 05:19:05;;;;;;;2.70;2.03;;;20.10;1.00;;;20.50;58.33;101409.44;5071815;28;20413;-69
2022/07/13 05:21:39;;;;;;;2.30;2.10;;;20.10;1.00;;;20.58;58.09;101416.38;5076587;28;20432;-69
2022/07/13 05:24:08;;;;;;;2.50;2.20;;;20.00;1.00;;;20.79;57.79;101412.81;5071643;28;20418;-68
2022/07/13 05:26:39;;;;;;;2.87;2.50;;;20.30;1.00;;;20.77;57.90;101406.72;5074554;28;20455;-70
2022/07/13 05:29:09;;;;;;;3.20;2.40;;;20.40;1.00;;;20.79;58.36;101407.31;5073055;28;20405;-73
2022/07/13 05:31:39;;;;;;;3.17;2.37;;;20.30;1.00;;;20.85;57.61;101398.03;5071350;28;20458;-69
2022/07/13 05:34:09;;;;;;;4.40;2.20;;;20.40;1.00;;;20.82;58.05;101395.78;5071653;28;20446;-70
2022/07/13 05:36:44;;;;;;;3.10;2.20;;;20.40;1.00;;;20.72;58.27;101393.75;5071528;28;20466;-69
2022/07/13 05:39:13;;;;;;;9.47;2.90;;;20.30;1.00;;;20.72;58.40;101403.94;5072402;28;20929;-69
2022/07/13 05:41:43;;;;;;;2.20;2.00;;;20.40;1.00;;;20.89;57.63;101404.66;5076596;28;20441;-70
2022/07/13 05:44:12;;;;;;;2.80;2.27;;;20.50;1.00;;;20.83;57.65;101403.78;5072787;28;20413;-69
2022/07/13 05:46:41;;;;;;;5.97;2.00;;;20.60;1.00;;;20.81;58.10;101400.47;5069556;28;20450;-69
2022/07/13 05:49:10;;;;;;;2.80;2.00;;;20.50;1.00;;;20.78;58.65;101405.63;5071575;28;20484;-68
2022/07/13 05:51:39;;;;;;;2.27;2.00;;;20.40;1.00;;;20.81;58.61;101400.47;5072549;28;20432;-69
2022/07/13 05:54:13;;;;;;;3.77;2.87;;;20.40;1.00;;;20.89;58.09;101401.09;5071236;28;20934;-69
2022/07/13 05:57:02;;;;;;;2.77;2.20;;;20.50;1.00;;;21.02;57.48;101398.75;5067447;28;20424;-68
2022/07/13 05:59:33;;;;;;;2.80;2.37;;;20.60;1.00;;;21.19;57.34;101407.78;5072383;28;20870;-69
2022/07/13 06:02:02;;;;;;;3.40;2.43;;;20.70;1.00;;;21.40;56.93;101406.03;5075251;28;20457;-70
2022/07/13 06:04:31;;;;;;;2.40;2.00;;;20.90;1.00;;;21.58;56.98;101407.59;5072147;28;20458;-69
2022/07/13 06:07:00;;;;;;;4.87;3.23;;;21.10;1.00;;;21.76;56.25;101398.06;5072352;28;20433;-69
2022/07/13 06:09:31;;;;;;;3.67;2.80;;;21.30;1.00;;;21.87;56.04;101397.06;5072733;28;20412;-69
2022/07/13 06:12:00;;;;;;;2.93;1.93;;;21.30;1.00;;;21.98;55.42;101405.16;5073112;28;20441;-69
2022/07/13 06:14:29;;;;;;;3.47;2.23;;;21.50;1.00;;;22.05;54.97;101404.91;5073257;28;20430;-70
2022/07/13 06:16:58;;;;;;;3.60;2.33;;;21.50;1.00;;;22.23;54.84;101409.97;5073384;28;20458;-70
2022/07/13 06:19:28;;;;;;;3.63;2.87;;;21.70;1.00;;;22.24;54.97;101405.31;5072905;28;20426;-70
2022/07/13 06:21:57;;;;;;;3.00;1.90;;;21.60;1.00;;;22.39;54.43;101399.88;5072394;28;20804;-70
2022/07/13 06:24:26;;;;;;;3.77;2.73;;;21.60;1.00;;;22.55;54.35;101401.63;5072798;28;20525;-69
2022/07/13 06:26:57;;;;;;;3.00;2.50;;;21.80;1.00;;;22.78;54.03;101398.41;5075625;28;20445;-69
2022/07/13 06:29:27;;;;;;;3.60;2.30;;;21.90;1.00;;;22.93;53.49;101401.22;5071910;28;20434;-69
2022/07/13 06:31:56;;;;;;;2.93;2.30;;;22.20;1.00;;;22.94;52.97;101394.59;5071509;28;20828;-69
2022/07/13 06:34:25;;;;;;;2.50;1.70;;;22.20;1.00;;;23.14;52.13;101396.56;5073696;28;20789;-69
2022/07/13 06:36:56;;;;;;;5.43;2.20;;;22.60;1.00;;;23.36;52.12;101390.78;5073389;28;20453;-69
2022/07/13 06:39:26;;;;;;;5.27;3.10;;;22.60;1.00;;;23.44;51.88;101398.53;5080399;28;20422;-70
2022/07/13 06:41:57;;;;;;;3.53;2.10;;;22.70;1.00;;;23.69;51.58;101392.19;5078497;28;20503;-68
2022/07/13 06:44:26;;;;;;;4.50;2.53;;;22.90;1.00;;;23.79;50.77;101393.03;5079627;28;20449;-68
2022/07/13 06:46:59;;;;;;;1.90;1.60;;;23.00;1.00;;;24.04;50.77;101394.09;5069825;28;20434;-69
2022/07/13 06:49:29;;;;;;;5.80;2.43;;;23.20;1.00;;;24.34;49.42;101394.06;5071617;28;20533;-69
2022/07/13 06:51:58;;;;;;;3.87;2.30;;;23.40;1.00;;;24.28;49.81;101392.41;5078021;28;20461;-69
2022/07/13 06:54:27;;;;;;;3.20;2.00;;;23.50;1.00;;;24.66;49.28;101396.41;5069188;28;20438;-69
2022/07/13 06:56:58;;;;;;;24.33;5.30;;;23.90;1.00;;;24.82;49.63;101380.53;5071021;28;20462;-68
2022/07/13 06:59:27;;;;;;;4.23;2.00;;;24.00;1.00;;;25.00;48.52;101379.91;5071574;28;20440;-69
2022/07/13 07:01:56;;;;;;;6.90;2.20;;;24.00;1.00;;;25.00;49.18;101377.97;5071522;28;20424;-69
2022/07/13 07:04:25;;;;;;;2.07;1.70;;;24.10;1.00;;;25.10;48.03;101369.59;5071052;28;20438;-70
2022/07/13 07:06:54;;;;;;;2.93;2.17;;;24.20;1.00;;;25.42;47.66;101366.28;5077333;28;20422;-69
2022/07/13 07:09:24;;;;;;;5.53;3.33;;;24.40;1.00;;;25.41;47.35;101364.66;5078943;28;20482;-69
2022/07/13 07:11:53;;;;;;;5.70;1.67;;;24.50;1.00;;;25.33;47.61;101356.13;5086846;22;20852;-74
2022/07/13 07:14:23;;;;;;;4.67;2.57;;;24.40;1.00;;;25.26;47.40;101356.47;5072987;28;20413;-75
2022/07/13 07:16:52;;;;;;;2.30;1.60;;;24.30;1.00;;;25.50;46.78;101351.84;5078869;28;20545;-72
2022/07/13 07:19:21;;;;;;;6.63;1.90;;;24.50;1.00;;;25.59;46.54;101345.69;5071992;28;20413;-75
2022/07/13 07:21:54;;;;;;;2.57;1.73;;;24.70;1.00;;;25.72;46.01;101339.44;5083419;28;20417;-75
2022/07/13 07:24:24;;;;;;;2.20;1.97;;;24.70;1.00;;;25.93;45.41;101332.59;5078603;28;20445;-75
2022/07/13 07:26:53;;;;;;;1.70;1.33;;;25.00;1.00;;;26.07;44.97;101335.47;5076172;28;20482;-74
2022/07/13 07:29:23;;;;;;;3.90;2.20;;;25.30;1.00;;;25.86;45.79;101335.69;5079570;28;21064;-74
2022/07/13 07:31:52;;;;;;;2.97;1.90;;;25.20;1.00;;;25.78;45.67;101330.81;5083719;28;20430;-74
2022/07/13 07:34:22;;;;;;;2.20;1.60;;;25.00;1.00;;;25.86;45.48;101332.09;5074293;28;20480;-74
2022/07/13 07:36:51;;;;;;;2.23;1.70;;;24.90;1.00;;;25.89;45.49;101337.91;5074629;28;20426;-74
2022/07/13 07:39:20;;;;;;;2.50;2.30;;;25.10;1.00;;;26.20;45.13;101346.69;5085757;28;20436;-75
2022/07/13 07:41:49;;;;;;;3.10;2.43;;;25.30;1.00;;;26.22;44.83;101341.72;5084687;28;20422;-74
2022/07/13 07:44:18;;;;;;;3.00;1.87;;;25.40;1.00;;;26.38;44.53;101337.59;5099993;28;20541;-75
2022/07/13 07:46:55;;;;;;;2.07;1.83;;;25.60;1.00;;;26.56;44.06;101340.72;5081619;28;20796;-75
2022/07/13 07:49:24;;;;;;;2.87;1.90;;;25.70;1.00;;;26.74;43.85;101342.69;5087979;28;20794;-74
2022/07/13 07:51:54;;;;;;;2.50;2.00;;;26.00;1.00;;;26.50;43.81;101331.63;5094114;28;20449;-75
2022/07/13 07:54:43;;;;;;;2.03;1.80;;;25.90;1.00;;;26.64;43.83;101332.56;5090098;28;20457;-74
2022/07/13 07:57:19;;;;;;;3.20;2.50;;;25.90;1.00;;;26.73;43.96;101330.75;5091282;28;20456;-76
2022/07/13 07:59:48;;;;;;;3.10;2.00;;;25.90;1.00;;;26.98;44.37;101332.34;5081921;28;20442;-75
2022/07/13 08:02:19;;;;;;;5.23;2.30;;;26.10;1.00;;;27.15;42.41;101342.94;5083678;28;20480;-75
2022/07/13 08:04:49;;;;;;;2.63;1.83;;;26.40;1.00;;;26.55;42.93;101333.50;5080276;28;20426;-75
2022/07/13 08:07:18;;;;;;;2.73;1.90;;;26.20;1.00;;;26.72;42.62;101339.41;5075577;28;20913;-75
2022/07/13 08:09:47;;;;;;;2.97;2.40;;;26.20;1.00;;;26.89;42.62;101334.16;5078063;28;20433;-76
2022/07/13 08:12:16;;;;;;;3.27;2.43;;;26.20;1.00;;;26.89;42.51;101328.59;5077632;28;20460;-75
2022/07/13 08:14:47;;;;;;;6.10;2.10;;;26.10;1.00;;;26.99;43.35;101330.41;5086276;28;20461;-76
2022/07/13 08:17:16;;;;;;;2.37;2.17;;;26.30;1.00;;;27.08;42.21;101323.88;5075668;28;20453;-75
2022/07/13 08:19:46;;;;;;;16.13;4.63;;;26.40;1.00;;;27.15;42.29;101318.75;5072687;28;20430;-75
2022/07/13 08:22:16;;;;;;;7.43;5.00;;;26.50;1.00;;;27.14;42.26;101311.56;5079092;28;20432;-74
2022/07/13 08:24:45;;;;;;;2.60;2.03;;;26.40;1.00;;;27.34;41.97;101312.34;5077921;28;20791;-74
2022/07/13 08:27:14;;;;;;;2.80;2.00;;;26.30;1.00;;;27.57;41.25;101311.41;5079529;28;20788;-75
2022/07/13 08:29:43;;;;;;;2.30;1.83;;;26.70;1.00;;;28.03;40.55;101314.13;5075515;28;20940;-74
2022/07/13 08:32:12;;;;;;;3.27;2.03;;;27.10;1.00;;;28.16;40.92;101315.28;5076469;28;20454;-74
2022/07/13 08:40:20;;;;;;;2.80;2.13;;;27.40;1.00;;;28.16;39.64;101307.78;5087075;28;20451;-75
2022/07/13 08:42:50;;;;;;;3.87;2.20;;;27.30;1.00;;;28.65;39.05;101295.84;5075824;28;20515;-76
2022/07/13 08:45:19;;;;;;;2.73;1.70;;;27.50;1.00;;;28.79;38.38;101288.28;5085606;28;20478;-75
2022/07/13 08:47:49;;;;;;;2.07;1.30;;;27.70;1.00;;;29.22;38.00;101282.22;5081702;28;20445;-75
2022/07/13 08:50:23;;;;;;;3.37;2.20;;;28.20;1.00;;;29.39;37.47;101289.91;5086260;28;20513;-76
2022/07/13 08:52:54;;;;;;;2.53;1.70;;;28.40;1.00;;;29.51;38.05;101290.94;5080424;28;20486;-75
2022/07/13 08:55:25;;;;;;;3.50;2.00;;;28.40;1.00;;;28.87;38.13;101295.88;5080297;28;20445;-74
2022/07/13 08:57:55;;;;;;;2.70;1.90;;;28.20;1.00;;;29.05;37.93;101284.91;5083838;28;20942;-75
2022/07/13 09:00:24;;;;;;;2.77;1.60;;;28.20;1.00;;;29.50;36.67;101291.25;5083551;28;20437;-74
2022/07/13 09:02:54;;;;;;;3.60;1.90;;;28.40;1.00;;;29.85;37.07;101286.69;5082270;28;20518;-74
2022/07/13 09:05:27;;;;;;;3.23;2.93;;;28.90;1.00;;;29.73;36.59;101281.69;5084317;28;20450;-75
2022/07/13 09:08:07;;;;;;;2.70;2.10;;;28.90;1.00;;;29.64;36.82;101287.25;5087292;28;20798;-75
2022/07/13 09:10:54;;;;;;;3.47;1.80;;;29.00;1.00;;;29.60;36.75;101289.03;5083772;28;20426;-75
2022/07/13 09:13:39;;;;;;;1.90;1.70;;;28.90;1.00;;;29.47;36.67;101289.94;5096479;28;20848;-75
2022/07/13 09:16:20;;;;;;;1.80;1.20;;;28.90;1.00;;;29.34;37.24;101282.47;5084630;28;20431;-75
2022/07/13 09:18:51;;;;;;;3.53;1.90;;;28.80;1.00;;;29.37;36.69;101276.28;5078771;28;20526;-75
2022/07/13 09:21:32;;;;;;;2.73;2.23;;;28.90;1.00;;;29.76;36.47;101273.53;5082405;28;20495;-75
2022/07/13 09:24:04;;;;;;;2.03;1.70;;;28.90;1.00;;;29.82;36.54;101274.22;5080412;28;20517;-74
2022/07/13 09:26:41;;;;;;;2.97;2.00;;;29.00;1.00;;;30.01;35.69;101258.06;5072424;28;20537;-74
2022/07/13 09:29:11;;;;;;;2.10;1.60;;;29.10;1.00;;;30.37;35.38;101266.16;5081796;28;20433;-73
2022/07/13 09:31:52;;;;;;;2.03;1.70;;;29.20;1.00;;;30.21;35.61;101263.00;5080833;28;20454;-74
2022/07/13 09:34:50;;;;;;;2.50;1.37;;;29.40;1.00;;;29.33;36.44;101259.38;5086189;28;20425;-75
2022/07/13 09:37:23;;;;;;;1.90;1.53;;;29.00;1.00;;;29.32;36.63;101270.84;5076510;28;20435;-74
2022/07/13 09:40:07;;;;;;;2.27;1.70;;;28.90;1.00;;;29.60;36.58;101263.94;5079227;28;20679;-74
2022/07/13 09:42:39;;;;;;;2.30;1.50;;;29.00;1.00;;;29.93;35.55;101269.16;5083213;28;20545;-74
2022/07/13 09:48:04;;;;;;;1.60;1.30;;;29.40;1.00;;;30.16;35.06;101259.59;5085772;28;20503;-75
2022/07/13 09:50:42;;;;;;;2.13;1.43;;;29.30;1.00;;;29.94;35.50;101251.28;5082084;28;20433;-76
2022/07/13 09:53:27;;;;;;;8.70;1.60;;;29.30;1.00;;;29.92;35.67;101248.03;5089184;28;20457;-74
2022/07/13 09:56:01;;;;;;;4.80;2.10;;;29.30;1.00;;;29.50;36.08;101247.47;5074882;28;20431;-75
2022/07/13 09:58:32;;;;;;;2.03;1.77;;;29.10;1.00;;;29.63;36.18;101252.13;5079875;28;20474;-73
2022/07/13 10:01:07;;;;;;;1.90;1.37;;;29.20;1.00;;;29.57;35.97;101247.84;5079371;28;20948;-75
2022/07/13 10:03:39;;;;;;;2.07;1.87;;;29.20;1.00;;;29.84;36.20;101238.44;5075004;28;21015;-75
2022/07/13 10:06:15;;;;;;;2.03;1.80;;;29.00;1.00;;;29.59;35.62;101242.75;5078022;28;20940;-74
2022/07/13 10:08:44;;;;;;;6.60;1.90;;;29.00;1.00;;;29.61;36.19;101246.06;5079852;28;20436;-75
2022/07/13 10:11:18;;;;;;;2.57;1.73;;;28.90;1.00;;;29.83;35.98;101247.13;5074495;28;20453;-75
2022/07/13 10:13:47;;;;;;;2.77;1.57;;;29.00;1.00;;;30.19;35.78;101248.56;5082646;28;20544;-76
2022/07/13 10:16:17;;;;;;;1.80;1.50;;;29.30;1.00;;;30.18;35.40;101240.53;5084550;28;20430;-73
2022/07/13 10:18:49;;;;;;;2.10;1.90;;;29.40;1.00;;;30.28;35.72;101240.22;5078428;28;20564;-75
2022/07/13 10:21:34;;;;;;;1.70;1.40;;;29.60;1.00;;;30.33;34.44;101239.22;5069646;28;20818;-73
2022/07/13 10:24:15;;;;;;;2.60;2.00;;;29.60;1.00;;;30.21;34.97;101234.28;5075711;28;20444;-76
2022/07/13 10:26:49;;;;;;;1.73;1.43;;;29.50;1.00;;;30.60;35.36;101239.75;5078812;28;20441;-75
2022/07/13 10:29:18;;;;;;;5.23;2.07;;;29.70;1.00;;;30.96;33.87;101233.84;5078855;28;20427;-74
2022/07/13 10:32:00;;;;;;;2.20;1.73;;;30.10;1.00;;;30.79;32.84;101227.47;5074057;28;20434;-74
2022/07/13 10:34:51;;;;;;;1.90;1.67;;;30.40;1.00;;;30.14;33.88;101233.94;5074920;28;20436;-73
2022/07/13 10:37:22;;;;;;;2.53;1.60;;;30.00;1.00;;;30.59;33.64;101229.78;5075839;28;20826;-75
2022/07/13 10:40:11;;;;;;;3.03;2.00;;;30.20;1.00;;;31.05;33.59;101225.47;5073539;28;20454;-74
2022/07/13 10:43:31;;;;;;;2.13;1.87;;;30.20;1.00;;;31.66;33.09;101228.94;5088361;28;20479;-75